sensor_id;sensor_type;location;lat;lon;timestamp;P1;durP1;ratioP1;P2;durP2;ratioP2
6392;SDS011;3229;42.674;23.282;2022-11-20T00:02:17;3.33;;;1.67;;
6392;SDS011;3229;42.674;23.282;2022-11-20T00:04:44;3.87;;;1.87;;
6392;SDS011;3229;42.674;23.282;2022-11-20T00:07:11;3.87;;;1.87;;
6392;SDS011;3229;42.674;23.282;2022-11-20T00:09:38;2.27;;;1.80;;
6392;SDS011;3229;42.674;23.282;2022-11-20T00:12:05;1.50;;;1.40;;
6392;SDS011;3229;42.674;23.282;2022-11-20T00:14:31;4.20;;;1.83;;
6392;SDS011;3229;42.674;23.282;2022-11-20T00:16:58;2.87;;;1.70;;
6392;SDS011;3229;42.674;23.282;2022-11-20T00:19:27;4.80;;;2.10;;
6392;SDS011;3229;42.674;23.282;2022-11-20T00:21:53;3.73;;;1.70;;
6392;SDS011;3229;42.674;23.282;2022-11-20T00:24:20;3.93;;;1.70;;
6392;SDS011;3229;42.674;23.282;2022-11-20T00:26:47;1.50;;;1.40;;
6392;SDS011;3229;42.674;23.282;2022-11-20T00:29:14;2.13;;;1.73;;
6392;SDS011;3229;42.674;23.282;2022-11-20T00:31:41;1.67;;;1.57;;
6392;SDS011;3229;42.674;23.282;2022-11-20T00:34:08;1.90;;;1.50;;
6392;SDS011;3229;42.674;23.282;2022-11-20T00:36:36;3.70;;;1.87;;
6392;SDS011;3229;42.674;23.282;2022-11-20T00:39:03;1.90;;;1.70;;
6392;SDS011;3229;42.674;23.282;2022-11-20T00:41:30;2.83;;;1.40;;
6392;SDS011;3229;42.674;23.282;2022-11-20T00:43:57;1.80;;;1.60;;
6392;SDS011;3229;42.674;23.282;2022-11-20T00:46:25;1.60;;;1.50;;
6392;SDS011;3229;42.674;23.282;2022-11-20T00:48:53;2.27;;;1.53;;
6392;SDS011;3229;42.674;23.282;2022-11-20T00:51:21;2.80;;;1.77;;
6392;SDS011;3229;42.674;23.282;2022-11-20T00:53:50;3.27;;;1.63;;
6392;SDS011;3229;42.674;23.282;2022-11-20T00:56:18;1.97;;;1.50;;
6392;SDS011;3229;42.674;23.282;2022-11-20T00:58:46;3.17;;;1.87;;
6392;SDS011;3229;42.674;23.282;2022-11-20T01:01:15;1.90;;;1.60;;
6392;SDS011;3229;42.674;23.282;2022-11-20T01:03:45;1.73;;;1.47;;
6392;SDS011;3229;42.674;23.282;2022-11-20T01:06:14;1.87;;;1.40;;
6392;SDS011;3229;42.674;23.282;2022-11-20T01:08:42;1.70;;;1.60;;
6392;SDS011;3229;42.674;23.282;2022-11-20T01:11:12;3.23;;;1.90;;
6392;SDS011;3229;42.674;23.282;2022-11-20T01:13:40;2.57;;;1.80;;
6392;SDS011;3229;42.674;23.282;2022-11-20T01:16:08;2.83;;;1.43;;
6392;SDS011;3229;42.674;23.282;2022-11-20T01:18:38;1.97;;;1.20;;
6392;SDS011;3229;42.674;23.282;2022-11-20T01:21:07;3.53;;;1.50;;
6392;SDS011;3229;42.674;23.282;2022-11-20T01:23:36;2.40;;;1.57;;
6392;SDS011;3229;42.674;23.282;2022-11-20T01:26:04;4.03;;;1.63;;
6392;SDS011;3229;42.674;23.282;2022-11-20T01:28:35;1.90;;;1.50;;
6392;SDS011;3229;42.674;23.282;2022-11-20T01:31:06;3.23;;;1.40;;
6392;SDS011;3229;42.674;23.282;2022-11-20T01:33:38;4.10;;;1.90;;
6392;SDS011;3229;42.674;23.282;2022-11-20T01:36:09;2.53;;;1.80;;
6392;SDS011;3229;42.674;23.282;2022-11-20T01:38:37;1.93;;;1.53;;
6392;SDS011;3229;42.674;23.282;2022-11-20T01:41:04;4.00;;;1.50;;
6392;SDS011;3229;42.674;23.282;2022-11-20T01:43:32;1.57;;;1.47;;
6392;SDS011;3229;42.674;23.282;2022-11-20T01:46:01;1.67;;;1.40;;
6392;SDS011;3229;42.674;23.282;2022-11-20T01:48:40;3.57;;;1.53;;
6392;SDS011;3229;42.674;23.282;2022-11-20T01:51:12;2.17;;;1.73;;
6392;SDS011;3229;42.674;23.282;2022-11-20T01:53:47;5.40;;;1.70;;
6392;SDS011;3229;42.674;23.282;2022-11-20T01:56:15;3.57;;;1.73;;
6392;SDS011;3229;42.674;23.282;2022-11-20T01:58:43;1.47;;;1.37;;
6392;SDS011;3229;42.674;23.282;2022-11-20T02:01:16;1.40;;;1.30;;
6392;SDS011;3229;42.674;23.282;2022-11-20T02:03:43;5.90;;;1.80;;
6392;SDS011;3229;42.674;23.282;2022-11-20T02:06:11;2.77;;;1.53;;
6392;SDS011;3229;42.674;23.282;2022-11-20T02:08:42;1.53;;;1.43;;
6392;SDS011;3229;42.674;23.282;2022-11-20T02:11:09;3.53;;;1.60;;
6392;SDS011;3229;42.674;23.282;2022-11-20T02:13:37;2.23;;;2.03;;
6392;SDS011;3229;42.674;23.282;2022-11-20T02:16:14;4.83;;;1.97;;
6392;SDS011;3229;42.674;23.282;2022-11-20T02:18:45;4.17;;;1.67;;
6392;SDS011;3229;42.674;23.282;2022-11-20T02:21:15;2.40;;;1.60;;
6392;SDS011;3229;42.674;23.282;2022-11-20T02:24:04;2.90;;;1.53;;
6392;SDS011;3229;42.674;23.282;2022-11-20T02:26:35;1.70;;;1.37;;
6392;SDS011;3229;42.674;23.282;2022-11-20T02:29:10;3.30;;;1.57;;
6392;SDS011;3229;42.674;23.282;2022-11-20T02:31:37;1.60;;;1.50;;
6392;SDS011;3229;42.674;23.282;2022-11-20T02:34:07;1.73;;;1.63;;
6392;SDS011;3229;42.674;23.282;2022-11-20T02:36:35;1.40;;;1.30;;
6392;SDS011;3229;42.674;23.282;2022-11-20T02:39:06;1.93;;;1.53;;
6392;SDS011;3229;42.674;23.282;2022-11-20T02:41:34;4.20;;;1.50;;
6392;SDS011;3229;42.674;23.282;2022-11-20T02:44:02;2.07;;;1.60;;
6392;SDS011;3229;42.674;23.282;2022-11-20T02:46:30;3.20;;;1.60;;
6392;SDS011;3229;42.674;23.282;2022-11-20T02:48:57;3.43;;;1.60;;
6392;SDS011;3229;42.674;23.282;2022-11-20T02:51:24;2.60;;;1.50;;
6392;SDS011;3229;42.674;23.282;2022-11-20T02:53:51;1.37;;;1.30;;
6392;SDS011;3229;42.674;23.282;2022-11-20T02:56:19;4.33;;;2.00;;
6392;SDS011;3229;42.674;23.282;2022-11-20T02:58:46;2.73;;;1.67;;
6392;SDS011;3229;42.674;23.282;2022-11-20T03:01:13;2.90;;;1.50;;
6392;SDS011;3229;42.674;23.282;2022-11-20T03:03:40;2.37;;;1.50;;
6392;SDS011;3229;42.674;23.282;2022-11-20T03:06:07;3.27;;;1.80;;
6392;SDS011;3229;42.674;23.282;2022-11-20T03:08:34;3.33;;;1.70;;
6392;SDS011;3229;42.674;23.282;2022-11-20T03:11:02;1.70;;;1.50;;
6392;SDS011;3229;42.674;23.282;2022-11-20T03:13:31;1.97;;;1.80;;
6392;SDS011;3229;42.674;23.282;2022-11-20T03:16:03;2.67;;;1.50;;
6392;SDS011;3229;42.674;23.282;2022-11-20T03:18:32;4.37;;;2.23;;
6392;SDS011;3229;42.674;23.282;2022-11-20T03:20:58;1.60;;;1.50;;
6392;SDS011;3229;42.674;23.282;2022-11-20T03:23:25;5.10;;;1.77;;
6392;SDS011;3229;42.674;23.282;2022-11-20T03:25:54;4.40;;;1.70;;
6392;SDS011;3229;42.674;23.282;2022-11-20T03:28:21;1.93;;;1.63;;
6392;SDS011;3229;42.674;23.282;2022-11-20T03:30:49;3.13;;;1.80;;
6392;SDS011;3229;42.674;23.282;2022-11-20T03:33:16;6.60;;;1.60;;
6392;SDS011;3229;42.674;23.282;2022-11-20T03:35:43;2.20;;;1.67;;
6392;SDS011;3229;42.674;23.282;2022-11-20T03:38:12;4.93;;;1.80;;
6392;SDS011;3229;42.674;23.282;2022-11-20T03:40:39;4.70;;;1.80;;
6392;SDS011;3229;42.674;23.282;2022-11-20T03:43:05;1.47;;;1.40;;
6392;SDS011;3229;42.674;23.282;2022-11-20T03:45:32;2.03;;;1.77;;
6392;SDS011;3229;42.674;23.282;2022-11-20T03:48:00;1.30;;;1.30;;
6392;SDS011;3229;42.674;23.282;2022-11-20T03:50:29;4.43;;;2.10;;
6392;SDS011;3229;42.674;23.282;2022-11-20T03:52:56;2.60;;;1.77;;
6392;SDS011;3229;42.674;23.282;2022-11-20T03:55:23;3.43;;;1.70;;
6392;SDS011;3229;42.674;23.282;2022-11-20T03:57:51;4.43;;;1.73;;
6392;SDS011;3229;42.674;23.282;2022-11-20T04:00:18;2.13;;;1.60;;
6392;SDS011;3229;42.674;23.282;2022-11-20T04:02:45;2.03;;;1.67;;
6392;SDS011;3229;42.674;23.282;2022-11-20T04:05:14;2.57;;;1.60;;
6392;SDS011;3229;42.674;23.282;2022-11-20T04:07:41;3.27;;;1.80;;
6392;SDS011;3229;42.674;23.282;2022-11-20T04:10:07;2.23;;;1.60;;
6392;SDS011;3229;42.674;23.282;2022-11-20T04:12:47;2.10;;;1.50;;
6392;SDS011;3229;42.674;23.282;2022-11-20T04:15:14;3.70;;;1.77;;
6392;SDS011;3229;42.674;23.282;2022-11-20T04:17:41;3.23;;;1.73;;
6392;SDS011;3229;42.674;23.282;2022-11-20T04:20:08;3.13;;;1.60;;
6392;SDS011;3229;42.674;23.282;2022-11-20T04:22:38;1.50;;;1.40;;
6392;SDS011;3229;42.674;23.282;2022-11-20T04:25:05;2.20;;;1.60;;
6392;SDS011;3229;42.674;23.282;2022-11-20T04:27:35;4.27;;;1.80;;
6392;SDS011;3229;42.674;23.282;2022-11-20T04:30:09;3.17;;;1.60;;
6392;SDS011;3229;42.674;23.282;2022-11-20T04:32:37;2.00;;;1.50;;
6392;SDS011;3229;42.674;23.282;2022-11-20T04:35:04;3.97;;;1.57;;
6392;SDS011;3229;42.674;23.282;2022-11-20T04:37:32;2.83;;;1.43;;
6392;SDS011;3229;42.674;23.282;2022-11-20T04:40:01;3.30;;;1.80;;
6392;SDS011;3229;42.674;23.282;2022-11-20T04:42:28;1.77;;;1.57;;
6392;SDS011;3229;42.674;23.282;2022-11-20T04:44:57;5.27;;;1.90;;
6392;SDS011;3229;42.674;23.282;2022-11-20T04:47:24;2.60;;;1.60;;
6392;SDS011;3229;42.674;23.282;2022-11-20T04:49:51;1.70;;;1.60;;
6392;SDS011;3229;42.674;23.282;2022-11-20T04:52:18;1.67;;;1.50;;
6392;SDS011;3229;42.674;23.282;2022-11-20T04:54:45;1.40;;;1.30;;
6392;SDS011;3229;42.674;23.282;2022-11-20T04:57:14;1.70;;;1.43;;
6392;SDS011;3229;42.674;23.282;2022-11-20T04:59:41;4.23;;;1.47;;
6392;SDS011;3229;42.674;23.282;2022-11-20T05:02:08;3.17;;;1.40;;
6392;SDS011;3229;42.674;23.282;2022-11-20T05:04:35;3.40;;;1.70;;
6392;SDS011;3229;42.674;23.282;2022-11-20T05:07:02;3.40;;;1.40;;
6392;SDS011;3229;42.674;23.282;2022-11-20T05:09:30;2.63;;;1.43;;
6392;SDS011;3229;42.674;23.282;2022-11-20T05:11:58;1.50;;;1.40;;
6392;SDS011;3229;42.674;23.282;2022-11-20T05:14:30;4.63;;;1.63;;
6392;SDS011;3229;42.674;23.282;2022-11-20T05:16:59;1.60;;;1.50;;
6392;SDS011;3229;42.674;23.282;2022-11-20T05:19:26;1.47;;;1.30;;
6392;SDS011;3229;42.674;23.282;2022-11-20T05:21:55;1.47;;;1.37;;
6392;SDS011;3229;42.674;23.282;2022-11-20T05:24:22;2.70;;;1.43;;
6392;SDS011;3229;42.674;23.282;2022-11-20T05:26:49;3.07;;;1.80;;
6392;SDS011;3229;42.674;23.282;2022-11-20T05:29:16;2.00;;;1.63;;
6392;SDS011;3229;42.674;23.282;2022-11-20T05:31:47;1.67;;;1.30;;
6392;SDS011;3229;42.674;23.282;2022-11-20T05:34:14;2.47;;;1.70;;
6392;SDS011;3229;42.674;23.282;2022-11-20T05:36:41;1.57;;;1.33;;
6392;SDS011;3229;42.674;23.282;2022-11-20T05:39:10;3.27;;;1.33;;
6392;SDS011;3229;42.674;23.282;2022-11-20T05:41:37;2.23;;;1.80;;
6392;SDS011;3229;42.674;23.282;2022-11-20T05:44:04;4.43;;;1.70;;
6392;SDS011;3229;42.674;23.282;2022-11-20T05:46:31;2.07;;;1.53;;
6392;SDS011;3229;42.674;23.282;2022-11-20T05:49:00;3.13;;;1.60;;
6392;SDS011;3229;42.674;23.282;2022-11-20T05:51:27;2.13;;;1.73;;
6392;SDS011;3229;42.674;23.282;2022-11-20T05:53:55;2.40;;;1.50;;
6392;SDS011;3229;42.674;23.282;2022-11-20T05:56:23;2.33;;;1.30;;
6392;SDS011;3229;42.674;23.282;2022-11-20T05:58:50;2.90;;;1.57;;
6392;SDS011;3229;42.674;23.282;2022-11-20T06:01:18;1.43;;;1.30;;
6392;SDS011;3229;42.674;23.282;2022-11-20T06:03:46;4.87;;;1.37;;
6392;SDS011;3229;42.674;23.282;2022-11-20T06:06:17;2.00;;;1.70;;
6392;SDS011;3229;42.674;23.282;2022-11-20T06:08:46;1.63;;;1.53;;
6392;SDS011;3229;42.674;23.282;2022-11-20T06:11:14;3.27;;;1.50;;
6392;SDS011;3229;42.674;23.282;2022-11-20T06:13:42;3.50;;;1.53;;
6392;SDS011;3229;42.674;23.282;2022-11-20T06:16:09;1.60;;;1.50;;
6392;SDS011;3229;42.674;23.282;2022-11-20T06:18:37;2.10;;;1.40;;
6392;SDS011;3229;42.674;23.282;2022-11-20T06:21:07;3.10;;;1.60;;
6392;SDS011;3229;42.674;23.282;2022-11-20T06:23:36;2.73;;;1.80;;
6392;SDS011;3229;42.674;23.282;2022-11-20T06:26:04;2.80;;;1.50;;
6392;SDS011;3229;42.674;23.282;2022-11-20T06:28:34;2.00;;;1.43;;
6392;SDS011;3229;42.674;23.282;2022-11-20T06:31:02;3.27;;;1.90;;
6392;SDS011;3229;42.674;23.282;2022-11-20T06:33:29;3.63;;;1.50;;
6392;SDS011;3229;42.674;23.282;2022-11-20T06:35:59;1.63;;;1.40;;
6392;SDS011;3229;42.674;23.282;2022-11-20T06:38:35;6.03;;;1.73;;
6392;SDS011;3229;42.674;23.282;2022-11-20T06:41:07;2.33;;;1.37;;
6392;SDS011;3229;42.674;23.282;2022-11-20T06:43:37;1.97;;;1.57;;
6392;SDS011;3229;42.674;23.282;2022-11-20T06:46:08;2.87;;;1.50;;
6392;SDS011;3229;42.674;23.282;2022-11-20T06:48:35;1.95;;;1.58;;
6392;SDS011;3229;42.674;23.282;2022-11-20T06:51:02;3.67;;;1.88;;
6392;SDS011;3229;42.674;23.282;2022-11-20T06:53:33;1.73;;;1.20;;
6392;SDS011;3229;42.674;23.282;2022-11-20T06:56:04;2.33;;;1.52;;
6392;SDS011;3229;42.674;23.282;2022-11-20T06:58:33;4.55;;;1.40;;
6392;SDS011;3229;42.674;23.282;2022-11-20T07:01:01;2.30;;;1.35;;
6392;SDS011;3229;42.674;23.282;2022-11-20T07:03:29;1.83;;;1.50;;
6392;SDS011;3229;42.674;23.282;2022-11-20T07:05:55;1.45;;;1.30;;
6392;SDS011;3229;42.674;23.282;2022-11-20T07:08:25;5.93;;;1.38;;
6392;SDS011;3229;42.674;23.282;2022-11-20T07:10:56;2.75;;;1.20;;
6392;SDS011;3229;42.674;23.282;2022-11-20T07:13:25;3.63;;;1.60;;
6392;SDS011;3229;42.674;23.282;2022-11-20T07:15:52;1.77;;;1.42;;
6392;SDS011;3229;42.674;23.282;2022-11-20T07:18:19;3.03;;;1.30;;
6392;SDS011;3229;42.674;23.282;2022-11-20T07:20:45;2.42;;;1.45;;
6392;SDS011;3229;42.674;23.282;2022-11-20T07:23:12;2.65;;;1.10;;
6392;SDS011;3229;42.674;23.282;2022-11-20T07:25:39;1.75;;;1.42;;
6392;SDS011;3229;42.674;23.282;2022-11-20T07:28:06;2.53;;;1.48;;
6392;SDS011;3229;42.674;23.282;2022-11-20T07:30:38;1.38;;;1.27;;
6392;SDS011;3229;42.674;23.282;2022-11-20T07:33:04;2.22;;;1.55;;
6392;SDS011;3229;42.674;23.282;2022-11-20T07:35:34;2.22;;;1.77;;
6392;SDS011;3229;42.674;23.282;2022-11-20T07:38:01;3.60;;;1.50;;
6392;SDS011;3229;42.674;23.282;2022-11-20T07:40:45;2.25;;;1.30;;
6392;SDS011;3229;42.674;23.282;2022-11-20T07:43:12;3.22;;;1.50;;
6392;SDS011;3229;42.674;23.282;2022-11-20T07:45:43;3.78;;;1.60;;
6392;SDS011;3229;42.674;23.282;2022-11-20T07:48:12;1.63;;;1.38;;
6392;SDS011;3229;42.674;23.282;2022-11-20T07:50:40;3.42;;;1.70;;
6392;SDS011;3229;42.674;23.282;2022-11-20T07:53:07;2.10;;;1.60;;
6392;SDS011;3229;42.674;23.282;2022-11-20T07:55:34;2.00;;;1.52;;
6392;SDS011;3229;42.674;23.282;2022-11-20T07:58:01;4.43;;;1.70;;
6392;SDS011;3229;42.674;23.282;2022-11-20T08:00:28;4.35;;;1.60;;
6392;SDS011;3229;42.674;23.282;2022-11-20T08:02:56;2.35;;;1.70;;
6392;SDS011;3229;42.674;23.282;2022-11-20T08:05:23;5.57;;;1.73;;
6392;SDS011;3229;42.674;23.282;2022-11-20T08:07:51;3.00;;;1.80;;
6392;SDS011;3229;42.674;23.282;2022-11-20T08:10:18;5.53;;;1.95;;
6392;SDS011;3229;42.674;23.282;2022-11-20T08:12:45;6.20;;;1.80;;
6392;SDS011;3229;42.674;23.282;2022-11-20T08:15:31;3.88;;;1.73;;
6392;SDS011;3229;42.674;23.282;2022-11-20T08:18:01;2.00;;;1.88;;
6392;SDS011;3229;42.674;23.282;2022-11-20T08:20:29;9.35;;;1.85;;
6392;SDS011;3229;42.674;23.282;2022-11-20T08:22:59;8.20;;;2.40;;
6392;SDS011;3229;42.674;23.282;2022-11-20T08:25:27;10.50;;;2.50;;
6392;SDS011;3229;42.674;23.282;2022-11-20T08:27:56;7.05;;;2.10;;
6392;SDS011;3229;42.674;23.282;2022-11-20T08:30:24;12.98;;;2.92;;
6392;SDS011;3229;42.674;23.282;2022-11-20T08:32:54;12.23;;;2.90;;
6392;SDS011;3229;42.674;23.282;2022-11-20T08:35:30;18.08;;;3.65;;
6392;SDS011;3229;42.674;23.282;2022-11-20T08:38:01;13.63;;;2.45;;
6392;SDS011;3229;42.674;23.282;2022-11-20T08:40:28;20.60;;;3.28;;
6392;SDS011;3229;42.674;23.282;2022-11-20T08:42:57;22.30;;;2.85;;
6392;SDS011;3229;42.674;23.282;2022-11-20T08:45:24;8.65;;;2.53;;
6392;SDS011;3229;42.674;23.282;2022-11-20T08:47:53;11.57;;;2.75;;
6392;SDS011;3229;42.674;23.282;2022-11-20T08:50:25;14.50;;;2.45;;
6392;SDS011;3229;42.674;23.282;2022-11-20T08:53:01;7.22;;;2.20;;
6392;SDS011;3229;42.674;23.282;2022-11-20T08:55:29;16.92;;;3.17;;
6392;SDS011;3229;42.674;23.282;2022-11-20T08:57:56;10.30;;;2.42;;
6392;SDS011;3229;42.674;23.282;2022-11-20T09:00:25;6.80;;;2.47;;
6392;SDS011;3229;42.674;23.282;2022-11-20T09:02:52;12.70;;;2.00;;
6392;SDS011;3229;42.674;23.282;2022-11-20T09:05:19;8.20;;;2.45;;
6392;SDS011;3229;42.674;23.282;2022-11-20T09:07:51;7.78;;;1.98;;
6392;SDS011;3229;42.674;23.282;2022-11-20T09:10:23;7.10;;;2.50;;
6392;SDS011;3229;42.674;23.282;2022-11-20T09:12:52;6.13;;;2.00;;
6392;SDS011;3229;42.674;23.282;2022-11-20T09:15:20;3.47;;;2.00;;
6392;SDS011;3229;42.674;23.282;2022-11-20T09:17:50;4.15;;;1.90;;
6392;SDS011;3229;42.674;23.282;2022-11-20T09:20:17;4.28;;;1.85;;
6392;SDS011;3229;42.674;23.282;2022-11-20T09:22:46;8.82;;;2.08;;
6392;SDS011;3229;42.674;23.282;2022-11-20T09:25:18;3.08;;;1.52;;
6392;SDS011;3229;42.674;23.282;2022-11-20T09:27:48;3.80;;;1.90;;
6392;SDS011;3229;42.674;23.282;2022-11-20T09:30:20;4.93;;;2.40;;
6392;SDS011;3229;42.674;23.282;2022-11-20T09:32:47;6.70;;;1.90;;
6392;SDS011;3229;42.674;23.282;2022-11-20T09:35:14;5.20;;;1.95;;
6392;SDS011;3229;42.674;23.282;2022-11-20T09:37:42;10.65;;;2.22;;
6392;SDS011;3229;42.674;23.282;2022-11-20T09:40:10;2.92;;;1.98;;
6392;SDS011;3229;42.674;23.282;2022-11-20T09:42:47;3.10;;;1.85;;
6392;SDS011;3229;42.674;23.282;2022-11-20T09:45:23;4.47;;;1.90;;
6392;SDS011;3229;42.674;23.282;2022-11-20T09:48:11;6.07;;;1.75;;
6392;SDS011;3229;42.674;23.282;2022-11-20T09:50:51;4.00;;;1.63;;
6392;SDS011;3229;42.674;23.282;2022-11-20T09:53:28;4.22;;;1.83;;
6392;SDS011;3229;42.674;23.282;2022-11-20T09:56:02;5.05;;;2.03;;
6392;SDS011;3229;42.674;23.282;2022-11-20T09:58:31;7.60;;;1.77;;
6392;SDS011;3229;42.674;23.282;2022-11-20T10:01:04;4.00;;;2.42;;
6392;SDS011;3229;42.674;23.282;2022-11-20T10:03:42;6.63;;;2.17;;
6392;SDS011;3229;42.674;23.282;2022-11-20T10:06:17;5.25;;;2.10;;
6392;SDS011;3229;42.674;23.282;2022-11-20T10:08:50;7.30;;;2.75;;
6392;SDS011;3229;42.674;23.282;2022-11-20T10:11:25;4.65;;;2.30;;
6392;SDS011;3229;42.674;23.282;2022-11-20T10:14:04;5.80;;;2.28;;
6392;SDS011;3229;42.674;23.282;2022-11-20T10:16:44;6.85;;;2.30;;
6392;SDS011;3229;42.674;23.282;2022-11-20T10:19:24;8.30;;;2.47;;
6392;SDS011;3229;42.674;23.282;2022-11-20T10:22:08;4.63;;;2.42;;
6392;SDS011;3229;42.674;23.282;2022-11-20T10:24:48;6.78;;;2.45;;
6392;SDS011;3229;42.674;23.282;2022-11-20T10:27:29;7.28;;;2.33;;
6392;SDS011;3229;42.674;23.282;2022-11-20T10:30:10;6.55;;;2.55;;
6392;SDS011;3229;42.674;23.282;2022-11-20T10:32:43;5.18;;;2.63;;
6392;SDS011;3229;42.674;23.282;2022-11-20T10:35:19;5.82;;;2.28;;
6392;SDS011;3229;42.674;23.282;2022-11-20T10:37:49;5.63;;;2.63;;
6392;SDS011;3229;42.674;23.282;2022-11-20T10:40:21;4.38;;;2.58;;
6392;SDS011;3229;42.674;23.282;2022-11-20T10:43:04;3.80;;;2.42;;
6392;SDS011;3229;42.674;23.282;2022-11-20T10:45:42;4.57;;;2.60;;
6392;SDS011;3229;42.674;23.282;2022-11-20T10:48:16;3.88;;;2.70;;
6392;SDS011;3229;42.674;23.282;2022-11-20T10:50:49;3.45;;;2.55;;
6392;SDS011;3229;42.674;23.282;2022-11-20T10:53:28;4.15;;;2.35;;
6392;SDS011;3229;42.674;23.282;2022-11-20T10:56:11;5.18;;;2.85;;
6392;SDS011;3229;42.674;23.282;2022-11-20T10:58:48;6.05;;;2.67;;
6392;SDS011;3229;42.674;23.282;2022-11-20T11:01:29;8.23;;;2.92;;
6392;SDS011;3229;42.674;23.282;2022-11-20T11:03:56;6.28;;;2.80;;
6392;SDS011;3229;42.674;23.282;2022-11-20T11:06:25;5.78;;;2.80;;
6392;SDS011;3229;42.674;23.282;2022-11-20T11:09:02;9.57;;;2.88;;
6392;SDS011;3229;42.674;23.282;2022-11-20T11:11:38;10.85;;;2.58;;
6392;SDS011;3229;42.674;23.282;2022-11-20T11:14:11;2.67;;;1.98;;
6392;SDS011;3229;42.674;23.282;2022-11-20T11:16:48;5.28;;;2.42;;
6392;SDS011;3229;42.674;23.282;2022-11-20T11:19:20;5.53;;;1.73;;
6392;SDS011;3229;42.674;23.282;2022-11-20T11:21:53;3.83;;;1.90;;
6392;SDS011;3229;42.674;23.282;2022-11-20T11:24:22;2.88;;;2.03;;
6392;SDS011;3229;42.674;23.282;2022-11-20T11:26:54;4.93;;;1.70;;
6392;SDS011;3229;42.674;23.282;2022-11-20T11:29:33;5.93;;;1.70;;
6392;SDS011;3229;42.674;23.282;2022-11-20T11:32:05;2.90;;;1.52;;
6392;SDS011;3229;42.674;23.282;2022-11-20T11:34:42;5.20;;;2.00;;
6392;SDS011;3229;42.674;23.282;2022-11-20T11:37:10;1.60;;;1.50;;
6392;SDS011;3229;42.674;23.282;2022-11-20T11:39:47;5.22;;;1.92;;
6392;SDS011;3229;42.674;23.282;2022-11-20T11:42:16;2.83;;;1.98;;
6392;SDS011;3229;42.674;23.282;2022-11-20T11:44:48;3.70;;;1.80;;
6392;SDS011;3229;42.674;23.282;2022-11-20T11:47:33;2.20;;;1.60;;
6392;SDS011;3229;42.674;23.282;2022-11-20T11:50:14;2.43;;;1.57;;
6392;SDS011;3229;42.674;23.282;2022-11-20T11:52:43;1.90;;;1.20;;
6392;SDS011;3229;42.674;23.282;2022-11-20T11:55:20;3.13;;;1.63;;
6392;SDS011;3229;42.674;23.282;2022-11-20T11:57:57;5.03;;;1.70;;
6392;SDS011;3229;42.674;23.282;2022-11-20T12:00:34;2.83;;;1.50;;
6392;SDS011;3229;42.674;23.282;2022-11-20T12:03:08;2.93;;;1.57;;
6392;SDS011;3229;42.674;23.282;2022-11-20T12:05:44;4.20;;;1.73;;
6392;SDS011;3229;42.674;23.282;2022-11-20T12:08:15;5.93;;;1.80;;
6392;SDS011;3229;42.674;23.282;2022-11-20T12:10:48;3.00;;;1.57;;
6392;SDS011;3229;42.674;23.282;2022-11-20T12:13:26;1.60;;;1.50;;
6392;SDS011;3229;42.674;23.282;2022-11-20T12:16:03;2.57;;;1.70;;
6392;SDS011;3229;42.674;23.282;2022-11-20T12:18:36;2.50;;;1.83;;
6392;SDS011;3229;42.674;23.282;2022-11-20T12:21:10;2.83;;;1.60;;
6392;SDS011;3229;42.674;23.282;2022-11-20T12:23:48;2.40;;;1.63;;
6392;SDS011;3229;42.674;23.282;2022-11-20T12:26:27;2.80;;;1.97;;
6392;SDS011;3229;42.674;23.282;2022-11-20T12:29:07;3.80;;;1.53;;
6392;SDS011;3229;42.674;23.282;2022-11-20T12:31:45;2.97;;;1.60;;
6392;SDS011;3229;42.674;23.282;2022-11-20T12:34:43;6.10;;;1.77;;
6392;SDS011;3229;42.674;23.282;2022-11-20T12:37:21;4.07;;;1.43;;
6392;SDS011;3229;42.674;23.282;2022-11-20T12:39:58;4.63;;;1.70;;
6392;SDS011;3229;42.674;23.282;2022-11-20T12:42:41;3.70;;;1.80;;
6392;SDS011;3229;42.674;23.282;2022-11-20T12:45:51;2.90;;;1.63;;
6392;SDS011;3229;42.674;23.282;2022-11-20T12:48:41;3.23;;;1.77;;
6392;SDS011;3229;42.674;23.282;2022-11-20T12:51:21;3.80;;;1.87;;
6392;SDS011;3229;42.674;23.282;2022-11-20T12:54:00;1.57;;;1.47;;
6392;SDS011;3229;42.674;23.282;2022-11-20T12:56:39;3.87;;;1.97;;
6392;SDS011;3229;42.674;23.282;2022-11-20T12:59:27;4.77;;;1.90;;
6392;SDS011;3229;42.674;23.282;2022-11-20T13:02:21;3.40;;;1.70;;
6392;SDS011;3229;42.674;23.282;2022-11-20T13:05:03;3.60;;;2.10;;
6392;SDS011;3229;42.674;23.282;2022-11-20T13:07:42;3.37;;;2.20;;
6392;SDS011;3229;42.674;23.282;2022-11-20T13:10:13;4.47;;;2.27;;
6392;SDS011;3229;42.674;23.282;2022-11-20T13:12:45;5.00;;;2.50;;
6392;SDS011;3229;42.674;23.282;2022-11-20T13:15:17;3.27;;;2.37;;
6392;SDS011;3229;42.674;23.282;2022-11-20T13:18:04;3.53;;;2.53;;
6392;SDS011;3229;42.674;23.282;2022-11-20T13:20:37;4.93;;;3.23;;
6392;SDS011;3229;42.674;23.282;2022-11-20T13:23:08;4.53;;;2.67;;
6392;SDS011;3229;42.674;23.282;2022-11-20T13:26:04;5.90;;;3.43;;
6392;SDS011;3229;42.674;23.282;2022-11-20T13:28:32;5.80;;;3.00;;
6392;SDS011;3229;42.674;23.282;2022-11-20T13:31:01;8.07;;;3.83;;
6392;SDS011;3229;42.674;23.282;2022-11-20T13:33:29;5.80;;;3.73;;
6392;SDS011;3229;42.674;23.282;2022-11-20T13:36:03;4.30;;;3.37;;
6392;SDS011;3229;42.674;23.282;2022-11-20T13:38:43;7.77;;;4.30;;
6392;SDS011;3229;42.674;23.282;2022-11-20T13:41:10;4.67;;;3.97;;
6392;SDS011;3229;42.674;23.282;2022-11-20T13:44:04;6.00;;;3.80;;
6392;SDS011;3229;42.674;23.282;2022-11-20T13:46:37;6.13;;;4.03;;
6392;SDS011;3229;42.674;23.282;2022-11-20T13:49:16;5.63;;;4.07;;
6392;SDS011;3229;42.674;23.282;2022-11-20T13:51:46;4.83;;;4.17;;
6392;SDS011;3229;42.674;23.282;2022-11-20T13:57:30;10.27;;;4.00;;
6392;SDS011;3229;42.674;23.282;2022-11-20T14:00:09;4.87;;;2.63;;
6392;SDS011;3229;42.674;23.282;2022-11-20T14:02:41;5.67;;;3.50;;
6392;SDS011;3229;42.674;23.282;2022-11-20T14:05:15;6.20;;;3.47;;
6392;SDS011;3229;42.674;23.282;2022-11-20T14:07:47;6.57;;;2.83;;
6392;SDS011;3229;42.674;23.282;2022-11-20T14:10:20;7.27;;;3.13;;
6392;SDS011;3229;42.674;23.282;2022-11-20T14:12:48;4.03;;;3.10;;
6392;SDS011;3229;42.674;23.282;2022-11-20T14:15:26;5.47;;;2.93;;
6392;SDS011;3229;42.674;23.282;2022-11-20T14:17:55;4.97;;;3.10;;
6392;SDS011;3229;42.674;23.282;2022-11-20T14:20:25;6.33;;;3.17;;
6392;SDS011;3229;42.674;23.282;2022-11-20T14:22:57;13.33;;;3.63;;
6392;SDS011;3229;42.674;23.282;2022-11-20T14:25:25;5.90;;;3.03;;
6392;SDS011;3229;42.674;23.282;2022-11-20T14:27:56;8.73;;;2.93;;
6392;SDS011;3229;42.674;23.282;2022-11-20T14:30:26;5.13;;;2.83;;
6392;SDS011;3229;42.674;23.282;2022-11-20T14:32:54;8.83;;;3.63;;
6392;SDS011;3229;42.674;23.282;2022-11-20T14:35:27;4.17;;;3.00;;
6392;SDS011;3229;42.674;23.282;2022-11-20T14:37:55;6.07;;;2.70;;
6392;SDS011;3229;42.674;23.282;2022-11-20T14:40:26;3.20;;;2.90;;
6392;SDS011;3229;42.674;23.282;2022-11-20T14:42:55;5.00;;;3.10;;
6392;SDS011;3229;42.674;23.282;2022-11-20T14:45:22;3.47;;;2.40;;
6392;SDS011;3229;42.674;23.282;2022-11-20T14:47:50;4.93;;;2.80;;
6392;SDS011;3229;42.674;23.282;2022-11-20T14:50:19;3.40;;;2.90;;
6392;SDS011;3229;42.674;23.282;2022-11-20T14:52:51;4.93;;;2.63;;
6392;SDS011;3229;42.674;23.282;2022-11-20T14:55:30;5.57;;;3.23;;
6392;SDS011;3229;42.674;23.282;2022-11-20T14:57:59;6.13;;;2.80;;
6392;SDS011;3229;42.674;23.282;2022-11-20T15:00:28;4.33;;;2.63;;
6392;SDS011;3229;42.674;23.282;2022-11-20T15:02:56;2.63;;;2.43;;
6392;SDS011;3229;42.674;23.282;2022-11-20T15:05:23;5.17;;;3.13;;
6392;SDS011;3229;42.674;23.282;2022-11-20T15:08:03;4.70;;;2.73;;
6392;SDS011;3229;42.674;23.282;2022-11-20T15:10:34;3.53;;;2.50;;
6392;SDS011;3229;42.674;23.282;2022-11-20T15:13:03;4.03;;;2.77;;
6392;SDS011;3229;42.674;23.282;2022-11-20T15:15:43;4.23;;;2.73;;
6392;SDS011;3229;42.674;23.282;2022-11-20T15:18:17;4.97;;;2.77;;
6392;SDS011;3229;42.674;23.282;2022-11-20T15:20:46;4.93;;;2.37;;
6392;SDS011;3229;42.674;23.282;2022-11-20T15:23:17;4.80;;;2.30;;
6392;SDS011;3229;42.674;23.282;2022-11-20T15:25:47;3.67;;;2.70;;
6392;SDS011;3229;42.674;23.282;2022-11-20T15:28:16;5.23;;;2.53;;